Time;durP1;ratioP1;P1;durP2;ratioP2;P2;SDS_P1;SDS_P2;PMS_P1;PMS_P2;Temp;Humidity;BMP_temperature;BMP_pressure;BME280_temperature;BME280_humidity;BME280_pressure;Samples;Min_cycle;Max_cycle;Signal;HPM_P1;HPM_P2
2023/05/19 00:05:27;;;;;;;;;;;;;;;10.86;100.00;98035.50;18560796;32;20312;-56
2023/05/19 00:15:30;;;;;;;;;;;;;;;10.81;100.00;98032.78;18560246;32;20000;-54
2023/05/19 00:25:33;;;;;;;;;;;;;;;10.77;100.00;98029.78;18559852;32;19979;-56
2023/05/19 00:35:35;;;;;;;;;;;;;;;10.74;100.00;98026.78;18560128;32;19953;-56
2023/05/19 00:45:38;;;;;;;;;;;;;;;10.67;100.00;98025.16;18559604;32;19952;-56
2023/05/19 00:55:41;;;;;;;;;;;;;;;10.62;100.00;98014.28;18570918;32;20031;-55
2023/05/19 01:05:44;;;;;;;;;;;;;;;10.54;100.00;98012.09;18570450;32;20301;-56
2023/05/19 01:15:58;;;;;;;;;;;;;;;10.48;100.00;98002.28;18570533;31;19952;-56
2023/05/19 01:26:20;;;;;;;;;;;;;;;10.43;100.00;97988.75;18555678;32;19981;-56
2023/05/19 01:36:25;;;;;;;;;;;;;;;10.32;100.00;97985.16;18568628;32;19960;-56
2023/05/19 01:46:27;;;;;;;;;;;;;;;10.26;100.00;97988.87;18567984;32;19953;-56
2023/05/19 01:56:40;;;;;;;;;;;;;;;10.18;100.00;97991.00;18567483;32;19948;-56
2023/05/19 02:07:04;;;;;;;;;;;;;;;10.14;100.00;97989.91;18566621;32;19952;-56
2023/05/19 02:17:07;;;;;;;;;;;;;;;10.06;100.00;97979.56;18566447;32;19961;-56
2023/05/19 02:27:10;;;;;;;;;;;;;;;10.05;100.00;97988.75;18565733;32;19979;-55
2023/05/19 02:37:13;;;;;;;;;;;;;;;10.04;100.00;97992.50;18565051;32;20012;-56
2023/05/19 02:47:15;;;;;;;;;;;;;;;9.99;100.00;97995.19;18564098;32;20318;-56
2023/05/19 02:57:18;;;;;;;;;;;;;;;9.97;100.00;97986.53;18563829;32;20305;-55
2023/05/19 03:07:23;;;;;;;;;;;;;;;9.94;100.00;97987.84;18563149;32;20324;-54
2023/05/19 03:17:32;;;;;;;;;;;;;;;9.90;100.00;97975.94;18562062;32;19979;-55
2023/05/19 03:27:35;;;;;;;;;;;;;;;9.86;100.00;97969.41;18562315;32;19994;-55
2023/05/19 03:37:37;;;;;;;;;;;;;;;9.80;100.00;97976.66;18561686;32;19964;-56
2023/05/19 03:47:40;;;;;;;;;;;;;;;9.73;100.00;97981.47;18561028;32;19953;-56
2023/05/19 03:57:44;;;;;;;;;;;;;;;9.67;100.00;97990.56;18560729;31;20318;-56
2023/05/19 04:07:47;;;;;;;;;;;;;;;9.61;100.00;97997.03;18560847;32;20265;-56
2023/05/19 04:17:50;;;;;;;;;;;;;;;9.58;100.00;98003.75;18560518;32;19975;-56
2023/05/19 04:27:56;;;;;;;;;;;;;;;9.58;100.00;98002.91;18569223;32;19956;-56
2023/05/19 04:38:00;;;;;;;;;;;;;;;9.59;100.00;98004.53;18572230;31;20280;-56
2023/05/19 04:48:03;;;;;;;;;;;;;;;9.70;100.00;98003.56;18571985;32;20288;-56
2023/05/19 04:58:05;;;;;;;;;;;;;;;9.83;100.00;98007.75;18571049;32;20007;-56
2023/05/19 05:08:09;;;;;;;;;;;;;;;9.96;100.00;98011.91;18570609;32;19972;-56
2023/05/19 05:18:12;;;;;;;;;;;;;;;10.10;100.00;98029.31;18569947;32;20215;-56
2023/05/19 05:28:16;;;;;;;;;;;;;;;10.19;100.00;98016.12;18555253;32;19967;-56
2023/05/19 05:38:23;;;;;;;;;;;;;;;10.27;100.00;98017.56;18567463;31;19980;-57
2023/05/19 05:48:29;;;;;;;;;;;;;;;10.40;100.00;98027.94;18567787;31;19981;-57
2023/05/19 05:58:34;;;;;;;;;;;;;;;10.54;100.00;98033.72;18567648;32;19995;-57
2023/05/19 06:08:38;;;;;;;;;;;;;;;10.79;100.00;98041.16;18566957;32;20328;-57
2023/05/19 06:18:42;;;;;;;;;;;;;;;11.01;100.00;98032.06;18565961;32;19964;-57
2023/05/19 06:28:45;;;;;;;;;;;;;;;11.40;100.00;98031.69;18551632;32;19981;-57
2023/05/19 06:38:48;;;;;;;;;;;;;;;12.03;100.00;98036.13;18564560;31;19970;-57
2023/05/19 06:48:52;;;;;;;;;;;;;;;12.91;100.00;98022.44;18549869;32;19940;-57
2023/05/19 06:58:55;;;;;;;;;;;;;;;13.34;100.00;98034.50;18563863;32;19948;-56
2023/05/19 07:08:58;;;;;;;;;;;;;;;13.61;100.00;98036.03;18563378;32;19953;-55
2023/05/19 07:19:02;;;;;;;;;;;;;;;13.48;100.00;98034.72;18549113;32;20020;-56
2023/05/19 07:29:06;;;;;;;;;;;;;;;13.49;100.00;98032.84;18562261;32;19959;-54
2023/05/19 07:39:14;;;;;;;;;;;;;;;13.67;100.00;98031.38;18561254;32;19956;-57
2023/05/19 07:49:18;;;;;;;;;;;;;;;14.06;100.00;98014.25;18561573;32;20016;-56
2023/05/19 07:59:20;;;;;;;;;;;;;;;14.51;96.48;98008.66;18569169;32;19979;-56
2023/05/19 08:09:23;;;;;;;;;;;;;;;14.89;97.92;97996.03;18568291;32;19952;-56
2023/05/19 08:19:26;;;;;;;;;;;;;;;15.23;90.21;97992.34;18582003;32;20324;-57
2023/05/19 08:29:29;;;;;;;;;;;;;;;15.59;92.29;97991.88;18581662;31;19975;-57
2023/05/19 08:39:33;;;;;;;;;;;;;;;15.80;84.48;97980.69;18581288;31;19961;-57
2023/05/19 08:49:41;;;;;;;;;;;;;;;16.27;86.07;97978.00;18566651;32;20346;-57
2023/05/19 08:59:44;;;;;;;;;;;;;;;16.31;77.99;97978.19;18581044;32;20377;-57
2023/05/19 09:09:47;;;;;;;;;;;;;;;16.11;81.30;97972.00;18577623;32;19952;-58
2023/05/19 09:19:51;;;;;;;;;;;;;;;16.72;87.49;97963.81;18569885;32;19959;-58
2023/05/19 09:29:55;;;;;;;;;;;;;;;17.28;76.39;97970.88;18569125;31;19990;-57
2023/05/19 09:40:03;;;;;;;;;;;;;;;17.83;67.75;97969.09;18554441;31;19990;-57
2023/05/19 09:50:11;;;;;;;;;;;;;;;18.78;74.62;97959.81;18553886;32;19974;-57
2023/05/19 10:00:14;;;;;;;;;;;;;;;19.24;62.23;97960.44;18567506;32;20079;-57
2023/05/19 10:10:19;;;;;;;;;;;;;;;18.78;62.13;97957.06;18552918;32;19961;-57
2023/05/19 10:20:23;;;;;;;;;;;;;;;18.84;63.25;97955.00;18565704;31;20030;-57
2023/05/19 10:30:29;;;;;;;;;;;;;;;19.67;56.16;97955.34;18566038;32;19972;-58
2023/05/19 10:40:50;;;;;;;;;;;;;;;20.50;61.78;97957.00;18564652;31;20008;-58
2023/05/19 10:50:55;;;;;;;;;;;;;;;20.12;57.96;97941.25;18550550;32;20254;-58
2023/05/19 11:01:01;;;;;;;;;;;;;;;19.82;61.12;97941.16;18563863;32;19953;-57
2023/05/19 11:11:13;;;;;;;;;;;;;;;19.27;62.64;97940.63;18563376;32;20371;-57
2023/05/19 11:21:18;;;;;;;;;;;;;;;19.20;61.07;97940.28;18562465;32;20309;-57
2023/05/19 11:31:22;;;;;;;;;;;;;;;18.24;63.62;97934.44;18561774;32;19965;-57
2023/05/19 11:41:27;;;;;;;;;;;;;;;18.16;63.22;97936.03;18547353;31;19964;-56
2023/05/19 11:51:31;;;;;;;;;;;;;;;18.37;66.08;97919.06;18561479;32;19941;-56
2023/05/19 12:01:35;;;;;;;;;;;;;;;18.67;69.10;97919.34;18561066;32;19983;-56
2023/05/19 12:11:40;;;;;;;;;;;;;;;18.19;77.61;97907.22;18560622;32;20268;-57
2023/05/19 12:21:43;;;;;;;;;;;;;;;18.06;77.92;97901.53;18560259;31;20020;-57
2023/05/19 12:31:46;;;;;;;;;;;;;;;18.40;67.37;97905.53;18559796;32;19944;-57
2023/05/19 12:41:49;;;;;;;;;;;;;;;17.95;76.61;97898.25;18559426;31;20000;-57
2023/05/19 12:51:52;;;;;;;;;;;;;;;17.25;76.99;97905.91;18571511;32;20324;-56
2023/05/19 13:01:59;;;;;;;;;;;;;;;17.02;74.94;97890.56;18570650;31;19989;-57
2023/05/19 13:12:03;;;;;;;;;;;;;;;16.70;79.47;97876.72;18570472;32;19953;-57
2023/05/19 13:22:07;;;;;;;;;;;;;;;16.64;78.57;97869.78;18569919;32;19983;-57
2023/05/19 13:32:10;;;;;;;;;;;;;;;16.87;80.16;97876.09;18554807;32;19940;-56
2023/05/19 13:42:15;;;;;;;;;;;;;;;17.08;85.70;97868.28;18568473;31;20045;-56
2023/05/19 13:52:19;;;;;;;;;;;;;;;16.96;85.17;97872.69;18567964;32;19956;-56
2023/05/19 14:02:22;;;;;;;;;;;;;;;16.87;87.40;97865.19;18566678;32;20261;-55
2023/05/19 14:12:26;;;;;;;;;;;;;;;16.63;83.41;97868.16;18553029;32;19959;-56
2023/05/19 14:22:49;;;;;;;;;;;;;;;16.43;87.33;97859.25;18554548;32;20265;-55
2023/05/19 14:32:52;;;;;;;;;;;;;;;16.41;88.31;97849.75;18565695;32;19986;-57
2023/05/19 14:42:56;;;;;;;;;;;;;;;16.32;83.69;97857.88;18551222;32;19957;-57
2023/05/19 14:52:59;;;;;;;;;;;;;;;16.47;79.83;97855.94;18563998;31;19985;-56
2023/05/19 15:03:01;;;;;;;;;;;;;;;16.45;80.44;97853.50;18563801;32;20007;-56
2023/05/19 15:13:04;;;;;;;;;;;;;;;16.34;81.59;97846.63;18563179;32;19979;-55
2023/05/19 15:23:08;;;;;;;;;;;;;;;16.22;83.97;97847.94;18562846;32;20359;-56
2023/05/19 15:33:11;;;;;;;;;;;;;;;16.04;85.55;97829.75;18548224;32;19968;-56
2023/05/19 15:43:16;;;;;;;;;;;;;;;15.97;95.78;97835.59;18561341;32;19948;-56
2023/05/19 15:53:19;;;;;;;;;;;;;;;15.87;88.56;97836.59;18547339;32;19971;-55
2023/05/19 16:03:22;;;;;;;;;;;;;;;15.70;91.80;97839.06;18560930;32;20288;-56
2023/05/19 16:13:32;;;;;;;;;;;;;;;15.63;100.00;97830.47;18560598;32;19984;-56
2023/05/19 16:23:36;;;;;;;;;;;;;;;15.52;99.69;97824.38;18569366;32;19965;-55
2023/05/19 16:33:40;;;;;;;;;;;;;;;15.52;100.00;97835.28;18572958;32;20013;-55
2023/05/19 16:43:44;;;;;;;;;;;;;;;15.48;100.00;97829.59;18557866;32;20354;-56
2023/05/19 16:53:47;;;;;;;;;;;;;;;15.34;97.91;97826.84;18571682;32;19949;-56
2023/05/19 17:03:54;;;;;;;;;;;;;;;15.31;100.00;97818.47;18557658;32;19991;-56
2023/05/19 17:13:57;;;;;;;;;;;;;;;15.22;100.00;97824.59;18570341;32;19967;-57
2023/05/19 17:24:01;;;;;;;;;;;;;;;15.08;100.00;97831.88;18570201;32;20320;-56
2023/05/19 17:34:07;;;;;;;;;;;;;;;14.99;100.00;97830.91;18567991;31;20000;-56
2023/05/19 17:44:10;;;;;;;;;;;;;;;14.81;100.00;97835.25;18528688;32;19949;-56
2023/05/19 17:54:13;;;;;;;;;;;;;;;14.66;100.00;97830.84;18553767;32;19982;-57
2023/05/19 18:04:16;;;;;;;;;;;;;;;14.66;100.00;97830.84;18567666;32;19953;-57
2023/05/19 18:14:21;;;;;;;;;;;;;;;14.53;100.00;97827.69;18566890;32;19956;-56
2023/05/19 18:24:24;;;;;;;;;;;;;;;14.53;98.28;97844.03;18551721;32;19956;-56
2023/05/19 18:34:32;;;;;;;;;;;;;;;14.41;100.00;97835.47;18550515;32;19949;-54
2023/05/19 18:44:35;;;;;;;;;;;;;;;14.28;100.00;97838.88;18564455;32;20270;-55
2023/05/19 18:54:39;;;;;;;;;;;;;;;14.21;100.00;97844.66;18549957;32;19989;-57
2023/05/19 19:04:44;;;;;;;;;;;;;;;14.09;100.00;97839.66;18563766;32;19960;-57
2023/05/19 19:14:48;;;;;;;;;;;;;;;14.00;100.00;97853.06;18563095;32;20092;-56
2023/05/19 19:24:51;;;;;;;;;;;;;;;13.89;100.00;97846.94;18562958;32;19952;-57
2023/05/19 19:34:54;;;;;;;;;;;;;;;13.83;100.00;97856.22;18548146;32;19952;-56
2023/05/19 19:44:57;;;;;;;;;;;;;;;13.76;100.00;97854.94;18561428;32;19972;-56
2023/05/19 19:55:00;;;;;;;;;;;;;;;13.65;100.00;97856.94;18546831;32;19969;-57
2023/05/19 20:05:03;;;;;;;;;;;;;;;13.59;100.00;97850.72;18561024;32;19957;-55
2023/05/19 20:15:07;;;;;;;;;;;;;;;13.46;100.00;97865.00;18546169;32;19952;-56
2023/05/19 20:25:10;;;;;;;;;;;;;;;13.31;100.00;97868.59;18560209;32;19998;-56
2023/05/19 20:35:13;;;;;;;;;;;;;;;13.19;100.00;97856.16;18560438;32;19986;-56
2023/05/19 20:45:17;;;;;;;;;;;;;;;13.03;100.00;97869.06;18559473;32;19993;-54
2023/05/19 20:55:21;;;;;;;;;;;;;;;12.93;100.00;97846.59;18559384;32;19945;-56
2023/05/19 21:05:26;;;;;;;;;;;;;;;12.76;100.00;97847.78;18562116;32;19964;-56
2023/05/19 21:15:30;;;;;;;;;;;;;;;12.59;100.00;97845.41;18556502;31;19996;-56
2023/05/19 21:25:34;;;;;;;;;;;;;;;12.38;100.00;97839.25;18569941;32;19990;-56
2023/05/19 21:35:37;;;;;;;;;;;;;;;12.17;100.00;97828.50;18569518;32;20280;-56
2023/05/19 21:45:41;;;;;;;;;;;;;;;12.02;100.00;97833.97;18568458;32;19957;-57
2023/05/19 21:55:44;;;;;;;;;;;;;;;11.90;100.00;97823.41;18568201;32;19972;-55
2023/05/19 22:05:50;;;;;;;;;;;;;;;11.93;100.00;97806.56;18567361;32;19975;-56
2023/05/19 22:15:55;;;;;;;;;;;;;;;11.95;100.00;97801.75;18566041;32;19971;-56
2023/05/19 22:25:59;;;;;;;;;;;;;;;11.97;100.00;97794.12;18552567;32;19949;-56
2023/05/19 22:36:05;;;;;;;;;;;;;;;11.95;100.00;97790.91;18565588;32;19996;-57
2023/05/19 22:46:10;;;;;;;;;;;;;;;11.90;100.00;97790.87;18564922;32;20008;-55
2023/05/19 22:56:15;;;;;;;;;;;;;;;11.86;100.00;97787.91;18564675;32;19960;-56
2023/05/19 23:06:19;;;;;;;;;;;;;;;11.82;100.00;97788.72;18563578;31;19949;-56
2023/05/19 23:16:23;;;;;;;;;;;;;;;11.74;100.00;97768.44;18563129;32;19971;-56
2023/05/19 23:26:26;;;;;;;;;;;;;;;11.72;100.00;97775.19;18535675;32;19971;-56
2023/05/19 23:36:28;;;;;;;;;;;;;;;11.68;100.00;97758.72;18547838;32;19985;-55
2023/05/19 23:46:32;;;;;;;;;;;;;;;11.63;100.00;97750.59;18562014;32;19957;-56
2023/05/19 23:56:35;;;;;;;;;;;;;;;11.59;100.00;97739.47;18561207;32;19999;-57
